Time;durP1;ratioP1;P1;durP2;ratioP2;P2;SDS_P1;SDS_P2;PMS_P1;PMS_P2;Temp;Humidity;BMP_temperature;BMP_pressure;BME280_temperature;BME280_humidity;BME280_pressure;Samples;Min_cycle;Max_cycle;Signal;HPM_P1;HPM_P2
2021/12/19 00:00:55;;;;;;;27.93;24.83;;;;;;;5.79;82.50;100434.31;4987891;28;103239;-71
2021/12/19 00:03:49;;;;;;;26.88;23.98;;;;;;;5.86;82.20;100430.66;4990892;28;104739;-70
2021/12/19 00:09:05;;;;;;;27.67;24.67;;;;;;;5.82;81.80;100427.22;4991854;28;103273;-71
2021/12/19 00:11:36;;;;;;;27.02;23.73;;;;;;;5.91;81.76;100418.28;4990912;28;103200;-71
2021/12/19 00:14:06;;;;;;;27.50;24.50;;;;;;;5.94;81.40;100422.59;4991062;28;102796;-71
2021/12/19 00:16:34;;;;;;;28.52;24.80;;;;;;;5.80;81.22;100425.53;5003239;27;103189;-71
2021/12/19 00:19:04;;;;;;;27.05;23.60;;;;;;;5.28;83.29;100416.34;4985974;28;104635;-71
2021/12/19 00:21:32;;;;;;;25.83;23.03;;;;;;;5.49;82.50;100409.72;4989608;28;103201;-70
2021/12/19 00:24:00;;;;;;;24.73;21.45;;;;;;;5.68;82.73;100408.34;4987933;28;102982;-71
2021/12/19 00:26:30;;;;;;;27.10;23.92;;;;;;;5.72;83.08;100406.53;4990685;28;103876;-71
2021/12/19 00:29:03;;;;;;;27.30;24.33;;;;;;;5.76;82.86;100401.16;4989012;28;103259;-70
2021/12/19 00:31:34;;;;;;;29.85;25.83;;;;;;;5.48;82.16;100391.38;4988671;28;104704;-71
2021/12/19 00:34:03;;;;;;;28.67;25.00;;;;;;;5.49;83.63;100387.88;4993327;28;102977;-71
2021/12/19 00:36:31;;;;;;;25.83;22.73;;;;;;;5.59;83.50;100389.34;4990401;28;104559;-71
2021/12/19 00:39:00;;;;;;;25.02;21.70;;;;;;;5.64;83.37;100382.25;4988778;28;103342;-71
2021/12/19 00:41:29;;;;;;;22.60;20.17;;;;;;;5.76;83.13;100381.91;4987625;28;103695;-71
2021/12/19 00:44:07;;;;;;;27.30;23.75;;;;;;;5.52;83.45;100374.69;4988759;28;103272;-71
2021/12/19 00:46:46;;;;;;;25.35;22.65;;;;;;;5.55;83.75;100377.25;4993932;28;102862;-71
2021/12/19 00:49:20;;;;;;;25.20;22.13;;;;;;;5.62;83.69;100369.16;4980410;28;104108;-71
2021/12/19 00:51:48;;;;;;;31.03;25.60;;;;;;;5.10;85.02;100361.75;4988948;28;103201;-71
2021/12/19 00:54:16;;;;;;;29.95;25.52;;;;;;;5.04;85.38;100368.91;4989124;28;102681;-71
2021/12/19 00:56:48;;;;;;;22.98;20.20;;;;;;;5.42;85.36;100366.19;4992097;28;103106;-71
2021/12/19 00:59:18;;;;;;;24.00;21.40;;;;;;;5.43;83.76;100359.19;4989609;28;103874;-72
2021/12/19 01:01:49;;;;;;;23.42;20.95;;;;;;;5.60;83.78;100359.63;4989221;28;103259;-70
2021/12/19 01:04:19;;;;;;;21.42;19.20;;;;;;;5.69;83.33;100354.16;4988455;28;103086;-71
2021/12/19 01:06:49;;;;;;;25.17;22.33;;;;;;;5.75;82.97;100359.22;4990277;28;102792;-70
2021/12/19 01:09:18;;;;;;;31.25;27.05;;;;;;;5.36;83.36;100365.50;4987398;28;105938;-70
2021/12/19 01:11:49;;;;;;;28.77;25.38;;;;;;;5.54;83.62;100359.78;4988356;28;103157;-70
2021/12/19 01:14:18;;;;;;;32.27;27.07;;;;;;;5.26;85.11;100352.63;4986190;28;102867;-70
2021/12/19 01:16:47;;;;;;;28.10;25.00;;;;;;;5.44;84.33;100359.19;4988239;28;102777;-70
2021/12/19 01:19:16;;;;;;;34.50;27.90;;;;;;;4.80;84.19;100353.78;4986638;28;104592;-71
2021/12/19 01:21:45;;;;;;;39.60;31.55;;;;;;;4.00;89.82;100348.50;4989905;28;103333;-71
2021/12/19 01:24:13;;;;;;;49.15;34.60;;;;;;;3.48;93.64;100359.91;4986010;28;102825;-71
2021/12/19 01:26:42;;;;;;;47.07;34.23;;;;;;;3.59;94.35;100362.38;4988228;28;102934;-71
2021/12/19 01:29:11;;;;;;;46.67;33.78;;;;;;;3.74;92.38;100359.44;4988499;28;103282;-71
2021/12/19 01:31:39;;;;;;;44.78;32.72;;;;;;;3.79;92.14;100357.59;4987952;28;103542;-70
2021/12/19 01:34:12;;;;;;;28.93;24.90;;;;;;;4.61;92.19;100359.41;4990308;28;103496;-71
2021/12/19 01:36:41;;;;;;;33.83;28.88;;;;;;;4.97;89.09;100352.44;4989509;28;103290;-70
2021/12/19 01:39:10;;;;;;;28.80;24.77;;;;;;;5.19;87.60;100360.69;4992854;28;103354;-70
2021/12/19 01:41:47;;;;;;;36.17;31.10;;;;;;;4.90;86.50;100356.13;4990961;28;103293;-71
2021/12/19 01:44:16;;;;;;;36.67;30.02;;;;;;;4.76;88.19;100368.69;4993332;28;103054;-70
2021/12/19 01:46:46;;;;;;;34.80;28.30;;;;;;;5.03;88.04;100362.78;4991277;28;102982;-71
2021/12/19 01:49:17;;;;;;;38.33;30.63;;;;;;;4.91;87.16;100357.84;4989180;28;103268;-70
2021/12/19 01:51:46;;;;;;;36.17;30.35;;;;;;;5.00;86.86;100362.88;4992495;28;103397;-70
2021/12/19 01:54:15;;;;;;;30.60;26.17;;;;;;;5.26;86.54;100365.72;5010424;27;102729;-71
2021/12/19 01:56:44;;;;;;;33.17;28.02;;;;;;;5.34;86.17;100364.66;4992205;28;103017;-70
2021/12/19 01:59:12;;;;;;;35.63;28.90;;;;;;;5.44;85.20;100363.56;4988996;28;104012;-70
2021/12/19 02:01:42;;;;;;;30.70;26.63;;;;;;;5.54;84.51;100354.53;4985944;28;103729;-70
2021/12/19 02:04:12;;;;;;;39.53;32.63;;;;;;;5.17;83.58;100355.47;4992040;28;102703;-70
2021/12/19 02:06:42;;;;;;;33.60;27.67;;;;;;;5.46;84.80;100365.22;4992316;28;103141;-70
2021/12/19 02:09:11;;;;;;;32.22;26.35;;;;;;;5.52;83.86;100372.06;4990564;28;103508;-70
2021/12/19 02:11:42;;;;;;;30.48;25.77;;;;;;;5.67;84.00;100358.59;4992691;28;103349;-70
2021/12/19 02:14:12;;;;;;;31.07;27.00;;;;;;;5.74;83.45;100368.00;4990904;28;102854;-70
2021/12/19 02:16:41;;;;;;;35.30;30.05;;;;;;;5.66;82.83;100356.84;4986423;28;104007;-70
2021/12/19 02:19:11;;;;;;;36.05;30.30;;;;;;;5.60;83.22;100359.63;4990622;28;103343;-71
2021/12/19 02:21:41;;;;;;;31.80;27.50;;;;;;;5.67;83.29;100345.47;4993377;28;103202;-70
2021/12/19 02:24:12;;;;;;;25.20;21.48;;;;;;;5.71;82.91;100336.59;4989466;28;102911;-70
2021/12/19 02:26:41;;;;;;;24.05;19.98;;;;;;;5.57;82.96;100333.47;4991959;28;102855;-70
2021/12/19 02:29:12;;;;;;;22.83;19.50;;;;;;;5.51;83.22;100324.00;4988792;28;104034;-70
2021/12/19 02:31:44;;;;;;;24.90;21.45;;;;;;;5.35;82.92;100325.31;4994832;28;103213;-70
2021/12/19 02:34:17;;;;;;;22.73;19.60;;;;;;;5.12;84.53;100319.78;4995066;28;102962;-70
2021/12/19 02:36:58;;;;;;;22.80;19.45;;;;;;;4.54;87.08;100323.81;4993738;28;103004;-70
2021/12/19 02:48:11;;;;;;;15.23;13.63;;;;;;;5.28;86.07;100317.66;4989024;28;102908;-70
2021/12/19 02:50:44;;;;;;;23.63;19.70;;;;;;;5.16;85.06;100311.84;4992671;28;103199;-70
2021/12/19 02:53:17;;;;;;;29.20;22.40;;;;;;;4.13;87.10;100304.66;4991357;28;103252;-70
2021/12/19 02:55:45;;;;;;;26.27;22.20;;;;;;;4.77;87.62;100315.41;4989173;28;103069;-71
2021/12/19 02:58:13;;;;;;;31.95;25.70;;;;;;;4.49;87.85;100316.94;4991606;28;103810;-70
2021/12/19 03:00:41;;;;;;;35.30;27.63;;;;;;;4.03;90.44;100320.53;4992369;28;103280;-70
2021/12/19 03:03:10;;;;;;;36.25;27.75;;;;;;;4.21;90.21;100321.06;4988079;28;103307;-71
2021/12/19 03:05:38;;;;;;;32.25;26.40;;;;;;;4.54;90.33;100312.47;4987222;28;102980;-70
2021/12/19 03:08:08;;;;;;;37.95;29.33;;;;;;;4.33;89.21;100310.31;4991070;28;104605;-70
2021/12/19 03:11:14;;;;;;;27.27;23.75;;;;;;;4.79;88.88;100299.66;4990477;28;103281;-70
2021/12/19 03:17:56;;;;;;;25.27;20.45;;;;;;;4.30;89.24;100302.50;4981251;28;103184;-70
2021/12/19 03:19:22;;;;;;;16.80;14.85;;;;;;;4.76;87.78;100290.13;4991744;28;103627;-70
2021/12/19 03:21:51;;;;;;;18.17;15.48;;;;;;;5.02;86.40;100292.97;4992922;28;103930;-71
2021/12/19 03:24:18;;;;;;;24.57;19.93;;;;;;;4.62;86.28;100286.97;4988742;28;103192;-70
2021/12/19 03:26:48;;;;;;;27.77;21.98;;;;;;;4.58;87.89;100295.78;4986968;28;102894;-71
2021/12/19 03:29:16;;;;;;;25.30;21.57;;;;;;;4.80;86.63;100297.00;4989974;28;102913;-71
2021/12/19 03:31:44;;;;;;;24.90;20.52;;;;;;;4.74;86.92;100286.69;4990415;28;103467;-70
2021/12/19 03:34:13;;;;;;;21.98;19.08;;;;;;;5.03;86.17;100284.19;4991917;28;103204;-71
2021/12/19 03:36:41;;;;;;;20.83;17.85;;;;;;;5.26;85.52;100284.47;4991029;28;103037;-71
2021/12/19 03:39:25;;;;;;;17.85;15.95;;;;;;;5.35;84.96;100287.75;4990604;28;103119;-70
2021/12/19 03:41:56;;;;;;;19.25;17.17;;;;;;;5.31;84.17;100278.25;4986516;28;103326;-70
2021/12/19 03:44:25;;;;;;;19.98;17.20;;;;;;;5.37;85.03;100267.59;4989683;28;103310;-70
2021/12/19 03:46:53;;;;;;;19.90;17.13;;;;;;;5.43;84.50;100272.69;4989602;28;102693;-70
2021/12/19 03:49:21;;;;;;;20.13;17.60;;;;;;;5.44;84.37;100271.78;4989310;28;102713;-71
2021/12/19 03:51:50;;;;;;;23.67;20.60;;;;;;;4.86;85.74;100270.66;5002982;28;103270;-70
2021/12/19 03:54:18;;;;;;;23.40;19.33;;;;;;;4.63;87.07;100268.59;4998171;28;103277;-70
2021/12/19 03:56:46;;;;;;;24.42;19.95;;;;;;;4.47;88.85;100276.84;4997960;28;102876;-70
2021/12/19 03:59:16;;;;;;;18.52;16.52;;;;;;;4.94;87.87;100275.72;5001639;28;102896;-71
2021/12/19 04:01:49;;;;;;;23.02;19.50;;;;;;;4.88;87.64;100268.00;5003410;28;103613;-71
2021/12/19 04:04:18;;;;;;;20.77;18.48;;;;;;;4.92;87.47;100262.66;4992021;28;103447;-70
2021/12/19 04:06:46;;;;;;;20.90;18.08;;;;;;;4.82;87.89;100268.16;4993976;28;103778;-71
2021/12/19 04:09:14;;;;;;;25.08;21.45;;;;;;;4.47;88.76;100266.38;4991005;28;103048;-70
2021/12/19 04:11:43;;;;;;;21.15;18.42;;;;;;;4.82;88.99;100261.16;4989330;28;104212;-71
2021/12/19 04:14:11;;;;;;;22.58;19.20;;;;;;;4.84;87.04;100256.75;4990896;28;104716;-70
2021/12/19 04:16:42;;;;;;;22.00;18.27;;;;;;;5.03;86.63;100255.38;4990852;28;102991;-71
2021/12/19 04:19:11;;;;;;;21.33;17.70;;;;;;;5.15;85.78;100249.84;4990666;28;102925;-70
2021/12/19 04:21:39;;;;;;;21.02;17.90;;;;;;;5.12;84.34;100247.28;4991638;28;103317;-70
2021/12/19 04:24:08;;;;;;;23.52;19.50;;;;;;;4.36;88.82;100239.59;4990897;28;103203;-70
2021/12/19 04:26:36;;;;;;;22.67;19.10;;;;;;;4.52;88.68;100228.72;4988309;28;103778;-71
2021/12/19 04:29:04;;;;;;;27.77;21.33;;;;;;;4.36;88.38;100223.88;4990205;28;104065;-71
2021/12/19 04:31:33;;;;;;;20.48;17.40;;;;;;;4.81;88.33;100220.16;4988221;28;103502;-70
2021/12/19 04:34:02;;;;;;;19.33;16.83;;;;;;;5.10;86.76;100222.91;4989605;28;102727;-71
2021/12/19 04:36:35;;;;;;;18.80;16.45;;;;;;;5.12;85.92;100220.22;4990618;28;102802;-71
2021/12/19 04:42:22;;;;;;;18.33;15.85;;;;;;;4.97;86.27;100216.25;4987559;28;103423;-70
2021/12/19 04:56:19;;;;;;;16.38;14.15;;;;;;;4.39;87.23;100234.28;4984180;28;102981;-70
2021/12/19 04:59:35;;;;;;;18.27;15.43;;;;;;;4.23;86.98;100240.75;4982802;28;104821;-70
2021/12/19 05:02:12;;;;;;;18.77;15.38;;;;;;;4.63;87.17;100236.34;4990217;28;102852;-71
2021/12/19 05:05:15;;;;;;;20.70;16.27;;;;;;;4.34;87.19;100247.47;4988298;28;103244;-70
2021/12/19 05:16:15;;;;;;;14.27;12.77;;;;;;;4.85;86.91;100229.66;4992424;28;103322;-70
2021/12/19 05:18:46;;;;;;;16.98;14.70;;;;;;;4.74;87.57;100239.56;4993956;28;103868;-70
2021/12/19 05:21:17;;;;;;;14.40;12.90;;;;;;;4.90;86.27;100234.78;4993105;28;102768;-70
2021/12/19 05:24:15;;;;;;;18.67;14.75;;;;;;;4.66;85.58;100236.22;4985576;28;102894;-70
2021/12/19 05:26:43;;;;;;;14.40;12.60;;;;;;;4.30;89.88;100226.63;4989721;28;104073;-71
2021/12/19 05:29:15;;;;;;;14.13;12.30;;;;;;;4.51;89.10;100223.53;4991760;28;103171;-69
2021/12/19 05:31:44;;;;;;;12.38;10.93;;;;;;;4.64;86.38;100225.81;4994909;28;102648;-70
2021/12/19 05:34:13;;;;;;;10.98;9.88;;;;;;;4.65;85.92;100240.63;4994399;28;103993;-70
2021/12/19 05:45:15;;;;;;;8.68;7.78;;;;;;;4.82;84.22;100224.50;4992873;28;103023;-70
2021/12/19 05:47:45;;;;;;;9.30;8.37;;;;;;;4.87;84.65;100225.25;4992901;28;103711;-70
2021/12/19 05:50:18;;;;;;;8.73;7.82;;;;;;;4.99;84.08;100211.84;4991057;28;103205;-70
2021/12/19 05:52:47;;;;;;;11.05;9.45;;;;;;;4.69;84.36;100220.44;4989724;28;102855;-70
2021/12/19 05:55:20;;;;;;;9.47;8.47;;;;;;;4.67;84.99;100212.66;4993405;28;102924;-70
2021/12/19 05:57:48;;;;;;;10.00;8.70;;;;;;;3.99;87.15;100211.63;4989634;28;103277;-70
2021/12/19 06:00:18;;;;;;;12.47;10.40;;;;;;;4.01;88.16;100204.59;4989946;28;103373;-70
2021/12/19 06:02:47;;;;;;;17.20;13.70;;;;;;;3.95;89.36;100206.50;4991166;28;102641;-70
2021/12/19 06:05:16;;;;;;;18.30;15.50;;;;;;;4.02;89.54;100211.56;4988560;28;103021;-70
2021/12/19 06:07:44;;;;;;;20.75;16.90;;;;;;;4.22;88.30;100203.28;4991506;28;103803;-70
2021/12/19 06:10:15;;;;;;;21.63;16.98;;;;;;;4.19;88.25;100199.84;4988130;28;103461;-70
2021/12/19 06:12:47;;;;;;;18.10;14.68;;;;;;;4.56;88.15;100193.72;4987937;28;103078;-70
2021/12/19 06:15:15;;;;;;;18.15;15.10;;;;;;;4.56;87.45;100185.88;4989618;28;102824;-70
2021/12/19 06:17:45;;;;;;;17.65;14.80;;;;;;;4.74;86.59;100184.56;4979135;28;103310;-70
2021/12/19 06:20:14;;;;;;;15.85;13.80;;;;;;;4.75;86.33;100188.88;4983655;28;103332;-69
2021/12/19 06:22:45;;;;;;;15.43;13.83;;;;;;;4.64;87.12;100185.69;4989891;28;103151;-70
2021/12/19 06:25:15;;;;;;;18.75;15.25;;;;;;;4.67;86.13;100185.59;4977285;28;103222;-65
2021/12/19 06:27:43;;;;;;;17.50;14.85;;;;;;;4.75;86.57;100174.94;4985433;28;103417;-65
2021/12/19 06:30:13;;;;;;;19.13;15.70;;;;;;;4.38;87.30;100177.63;4976981;27;103332;-65
2021/12/19 06:32:42;;;;;;;21.33;15.97;;;;;;;3.78;89.09;100174.63;4993337;27;102864;-65
2021/12/19 06:35:18;;;;;;;18.73;15.05;;;;;;;4.03;89.12;100166.22;5008093;27;102618;-65
2021/12/19 06:37:48;;;;;;;19.52;15.32;;;;;;;3.74;89.20;100162.50;4990610;28;103453;-65
2021/12/19 06:40:21;;;;;;;15.13;12.97;;;;;;;4.23;89.15;100177.97;4991137;28;103245;-65
2021/12/19 06:42:49;;;;;;;17.55;14.93;;;;;;;3.82;89.27;100166.69;4988315;28;102742;-65
2021/12/19 06:45:20;;;;;;;16.63;13.40;;;;;;;4.03;89.66;100166.22;4993446;28;102959;-65
2021/12/19 06:47:50;;;;;;;18.25;14.43;;;;;;;3.70;89.39;100161.75;4989180;28;103270;-65
2021/12/19 06:50:23;;;;;;;14.82;12.85;;;;;;;4.17;90.12;100172.88;4988563;28;104350;-65
2021/12/19 06:52:52;;;;;;;14.20;12.17;;;;;;;4.49;88.30;100165.97;4988547;28;102937;-65
2021/12/19 06:55:21;;;;;;;16.70;13.20;;;;;;;4.15;87.99;100170.31;4990130;28;102942;-65
2021/12/19 06:57:49;;;;;;;13.10;11.70;;;;;;;4.37;87.75;100175.88;4989284;28;104450;-65
2021/12/19 07:00:22;;;;;;;12.67;11.33;;;;;;;4.40;86.87;100170.59;4992491;28;104484;-65
2021/12/19 07:02:52;;;;;;;12.35;11.05;;;;;;;4.48;87.84;100179.97;4989633;28;102734;-65
2021/12/19 07:05:20;;;;;;;11.23;10.02;;;;;;;4.67;86.48;100175.13;4989455;28;103963;-65
2021/12/19 07:07:49;;;;;;;13.15;11.27;;;;;;;4.31;86.16;100182.13;4988170;28;104037;-65
2021/12/19 07:10:18;;;;;;;12.00;10.68;;;;;;;4.52;88.10;100170.28;4990026;28;103308;-65
2021/12/19 07:12:46;;;;;;;14.45;12.43;;;;;;;4.20;88.58;100180.66;4989503;28;102972;-65
2021/12/19 07:15:15;;;;;;;14.40;12.32;;;;;;;4.44;88.49;100177.44;4992889;28;103910;-65
2021/12/19 07:17:44;;;;;;;13.48;12.07;;;;;;;4.63;87.10;100178.75;4990469;28;103268;-65
2021/12/19 07:20:13;;;;;;;15.15;13.55;;;;;;;4.78;86.26;100172.22;4986615;28;103202;-65
2021/12/19 07:22:41;;;;;;;14.32;12.82;;;;;;;4.83;85.78;100165.13;5002877;28;102660;-65
2021/12/19 07:25:10;;;;;;;16.65;14.02;;;;;;;4.48;86.10;100168.63;5001998;27;102879;-65
2021/12/19 07:27:38;;;;;;;14.47;12.80;;;;;;;4.41;87.71;100172.28;4996916;28;103279;-65
2021/12/19 07:30:07;;;;;;;13.35;11.95;;;;;;;4.71;86.48;100171.56;4997609;28;103407;-65
2021/12/19 07:32:37;;;;;;;11.90;10.63;;;;;;;4.83;85.73;100170.38;5012159;28;102779;-65
2021/12/19 07:35:22;;;;;;;12.33;10.93;;;;;;;4.74;86.00;100166.25;4997729;28;104200;-65
2021/12/19 07:37:52;;;;;;;11.63;10.43;;;;;;;4.82;86.16;100177.38;4997558;28;103284;-65
2021/12/19 07:40:21;;;;;;;12.30;10.57;;;;;;;5.01;85.32;100170.75;4998104;28;103241;-66
2021/12/19 07:42:50;;;;;;;12.60;11.05;;;;;;;4.91;85.38;100173.66;5001141;28;103316;-65
2021/12/19 07:45:18;;;;;;;11.85;10.45;;;;;;;5.02;85.00;100172.47;4996983;28;103925;-65
2021/12/19 07:47:49;;;;;;;12.43;10.93;;;;;;;5.01;84.65;100169.88;4995544;28;104295;-66
2021/12/19 07:50:17;;;;;;;11.75;10.55;;;;;;;4.91;84.79;100166.63;4993594;28;103320;-65
2021/12/19 07:52:47;;;;;;;11.40;10.20;;;;;;;5.06;84.99;100168.84;5013176;27;102791;-66
2021/12/19 07:55:15;;;;;;;14.45;11.80;;;;;;;4.77;84.53;100170.53;5001284;28;102854;-66
2021/12/19 07:57:43;;;;;;;11.50;10.30;;;;;;;4.98;85.28;100165.59;5007361;27;104572;-65
2021/12/19 08:00:14;;;;;;;11.90;10.20;;;;;;;4.83;86.02;100171.22;5005388;28;103271;-65
2021/12/19 08:02:45;;;;;;;11.07;9.98;;;;;;;4.97;84.98;100169.09;4998397;28;102735;-65
2021/12/19 08:05:14;;;;;;;10.38;9.05;;;;;;;5.22;84.63;100164.91;5004209;28;102632;-65
2021/12/19 08:07:46;;;;;;;10.80;9.70;;;;;;;5.16;84.77;100156.38;4992956;28;103555;-67
2021/12/19 08:13:00;;;;;;;9.70;8.63;;;;;;;4.37;87.63;100139.25;5002031;28;103186;-68
2021/12/19 08:15:28;;;;;;;8.32;7.13;;;;;;;4.80;87.53;100134.63;5001592;28;103622;-68
2021/12/19 08:17:56;;;;;;;7.97;7.18;;;;;;;4.79;86.70;100127.69;4997728;28;103409;-69
2021/12/19 08:20:26;;;;;;;8.77;7.87;;;;;;;4.82;86.03;100130.22;5001656;28;103845;-69
2021/12/19 08:22:55;;;;;;;8.75;7.82;;;;;;;4.84;85.61;100132.78;4996115;28;103558;-69
2021/12/19 08:25:26;;;;;;;8.98;8.07;;;;;;;4.70;85.86;100143.63;4996683;28;102772;-69
2021/12/19 08:27:55;;;;;;;8.07;7.28;;;;;;;4.92;85.63;100144.78;5000736;28;103248;-69
2021/12/19 08:30:24;;;;;;;9.18;8.18;;;;;;;4.82;85.06;100153.81;4995826;28;103165;-69
2021/12/19 08:32:56;;;;;;;9.30;8.30;;;;;;;4.83;86.24;100157.28;4997858;28;102966;-69
2021/12/19 08:35:24;;;;;;;8.27;7.35;;;;;;;5.05;85.50;100140.94;4999627;28;102879;-68
2021/12/19 08:37:52;;;;;;;6.90;6.20;;;;;;;5.22;84.82;100138.69;4989562;28;103169;-68
2021/12/19 08:40:22;;;;;;;8.15;7.35;;;;;;;4.94;85.22;100140.34;4989901;28;103195;-69
2021/12/19 08:42:52;;;;;;;7.90;7.10;;;;;;;4.79;84.76;100132.06;4999106;28;102940;-69
2021/12/19 08:45:21;;;;;;;8.82;7.70;;;;;;;4.62;86.28;100129.88;5001405;28;102654;-68
2021/12/19 08:47:52;;;;;;;8.25;7.35;;;;;;;4.83;86.71;100134.53;4996748;28;103418;-69
2021/12/19 08:50:21;;;;;;;7.95;6.82;;;;;;;5.03;86.02;100137.50;4999532;28;102944;-69
2021/12/19 08:52:51;;;;;;;8.93;8.02;;;;;;;4.92;85.55;100117.72;4997619;28;102982;-69
2021/12/19 08:55:20;;;;;;;7.45;6.72;;;;;;;4.92;86.53;100129.06;4998177;28;103154;-69
2021/12/19 08:57:48;;;;;;;7.00;6.30;;;;;;;4.79;87.25;100132.94;4998303;28;103205;-69
2021/12/19 09:00:19;;;;;;;7.60;6.80;;;;;;;4.90;86.01;100128.25;4998739;28;103170;-69
2021/12/19 09:02:50;;;;;;;5.83;5.33;;;;;;;5.18;85.45;100118.75;4995620;28;103317;-70
2021/12/19 09:05:20;;;;;;;6.50;5.53;;;;;;;5.04;85.82;100118.28;4997686;28;102796;-70
2021/12/19 09:07:50;;;;;;;5.77;5.27;;;;;;;5.14;85.07;100113.63;4996211;28;103238;-70
2021/12/19 09:10:18;;;;;;;5.35;4.50;;;;;;;5.32;84.29;100113.09;4994611;28;102621;-70
2021/12/19 09:12:47;;;;;;;5.20;4.70;;;;;;;5.44;83.84;100117.13;4989350;27;102798;-70
2021/12/19 09:15:17;;;;;;;4.60;4.20;;;;;;;5.43;83.44;100125.91;4995148;28;103931;-70
2021/12/19 09:17:45;;;;;;;5.30;4.80;;;;;;;5.14;83.81;100124.97;4992312;28;103262;-70
2021/12/19 09:20:13;;;;;;;4.70;4.30;;;;;;;5.26;85.05;100129.88;4990793;28;103215;-69
2021/12/19 09:22:41;;;;;;;5.00;4.50;;;;;;;5.53;84.14;100128.19;4993387;28;102828;-70
2021/12/19 09:25:18;;;;;;;5.43;4.93;;;;;;;5.22;84.38;100125.59;5003748;28;102866;-69
2021/12/19 09:27:47;;;;;;;5.50;4.90;;;;;;;5.08;84.96;100122.50;5002120;28;103486;-69
2021/12/19 09:30:17;;;;;;;4.97;4.50;;;;;;;5.18;85.70;100116.13;5009119;28;103215;-70
2021/12/19 09:32:45;;;;;;;5.55;5.05;;;;;;;4.90;86.12;100115.16;5002825;27;102861;-70
2021/12/19 09:35:14;;;;;;;5.22;4.72;;;;;;;4.90;86.14;100115.16;4997959;28;102624;-70
2021/12/19 09:37:42;;;;;;;5.13;4.63;;;;;;;4.58;86.53;100112.53;5002110;28;102853;-70
2021/12/19 09:40:19;;;;;;;4.53;4.13;;;;;;;4.74;88.02;100116.50;4999902;28;103191;-69
2021/12/19 09:42:50;;;;;;;4.65;4.20;;;;;;;4.99;86.30;100098.34;5003552;28;102818;-69
2021/12/19 09:45:21;;;;;;;4.55;4.13;;;;;;;5.28;86.58;100105.38;5000548;28;102680;-69
2021/12/19 09:47:49;;;;;;;5.15;4.65;;;;;;;5.06;85.71;100107.72;5005166;28;104343;-70
2021/12/19 09:50:17;;;;;;;4.82;4.30;;;;;;;5.25;85.68;100096.69;4998736;28;103314;-68
2021/12/19 09:52:46;;;;;;;3.95;3.65;;;;;;;5.49;84.16;100095.13;4999370;28;102629;-69
2021/12/19 09:55:19;;;;;;;4.10;3.70;;;;;;;5.57;83.59;100092.25;5001857;28;102926;-68
2021/12/19 09:57:47;;;;;;;4.82;4.32;;;;;;;5.03;85.04;100085.09;4999320;27;103268;-69
2021/12/19 10:00:16;;;;;;;4.40;4.00;;;;;;;5.41;84.52;100070.03;5005732;28;103212;-69
2021/12/19 10:02:48;;;;;;;3.85;3.55;;;;;;;5.60;83.96;100076.44;4973876;28;103019;-69
2021/12/19 10:05:20;;;;;;;3.60;3.30;;;;;;;5.20;84.39;100077.63;5001129;28;103056;-68
2021/12/19 10:07:51;;;;;;;3.85;3.55;;;;;;;5.06;85.44;100079.78;4998566;28;103299;-69
2021/12/19 10:10:27;;;;;;;3.80;3.40;;;;;;;5.17;84.36;100082.94;5000115;28;103175;-68
2021/12/19 10:12:58;;;;;;;3.50;3.20;;;;;;;5.63;83.91;100078.97;4999098;28;103124;-68
2021/12/19 10:15:33;;;;;;;4.40;4.00;;;;;;;4.99;85.50;100077.38;5001762;28;102859;-68
2021/12/19 10:18:07;;;;;;;3.75;3.45;;;;;;;5.13;84.65;100068.25;4996990;28;103955;-68
2021/12/19 10:20:58;;;;;;;4.45;4.05;;;;;;;5.11;86.21;100059.53;5004150;28;103242;-68
2021/12/19 10:23:29;;;;;;;4.65;4.25;;;;;;;4.62;87.29;100064.44;5003554;28;102604;-68
2021/12/19 10:25:59;;;;;;;3.40;3.10;;;;;;;5.28;86.05;100058.22;5007521;28;102832;-69
2021/12/19 10:28:31;;;;;;;3.78;3.35;;;;;;;5.14;85.27;100054.22;4997917;28;103247;-69
2021/12/19 10:31:01;;;;;;;4.27;3.83;;;;;;;5.03;86.42;100051.06;4999329;28;103185;-69
2021/12/19 10:33:33;;;;;;;3.53;3.22;;;;;;;5.21;84.97;100041.81;4996682;28;103064;-69
2021/12/19 10:36:05;;;;;;;3.45;3.15;;;;;;;5.59;84.38;100044.13;4997988;28;102704;-69
2021/12/19 10:38:35;;;;;;;3.15;2.85;;;;;;;5.64;84.10;100026.47;4986771;28;104218;-69
2021/12/19 10:41:11;;;;;;;2.70;2.50;;;;;;;5.80;83.21;100022.47;5001290;28;103215;-69
2021/12/19 10:43:45;;;;;;;3.75;3.45;;;;;;;5.54;83.55;100032.06;4995631;28;102524;-69
2021/12/19 10:46:13;;;;;;;3.95;3.60;;;;;;;5.55;83.70;100020.69;5004859;28;103060;-68
2021/12/19 10:48:43;;;;;;;3.80;3.50;;;;;;;5.75;83.02;100018.28;4998123;28;103447;-69
2021/12/19 10:51:13;;;;;;;3.95;3.65;;;;;;;5.65;83.63;100012.47;5007311;28;103263;-68
2021/12/19 10:53:43;;;;;;;4.18;3.80;;;;;;;5.90;82.71;100017.81;4998912;28;103027;-69
2021/12/19 10:56:14;;;;;;;4.40;4.00;;;;;;;5.11;84.60;100009.75;4997202;27;102991;-69
2021/12/19 10:58:45;;;;;;;4.05;3.70;;;;;;;5.58;83.38;99994.38;5001872;28;103330;-69
2021/12/19 11:01:22;;;;;;;4.28;3.90;;;;;;;5.19;84.28;100002.53;4995811;27;103125;-69
2021/12/19 11:04:04;;;;;;;4.35;3.95;;;;;;;5.12;84.84;99990.53;5010022;28;102714;-69
2021/12/19 11:06:36;;;;;;;4.78;4.32;;;;;;;5.10;85.19;99981.88;5006079;27;102678;-69
2021/12/19 11:09:10;;;;;;;4.40;4.00;;;;;;;5.27;84.53;99986.59;5010249;28;103057;-69
2021/12/19 11:11:48;;;;;;;3.97;3.67;;;;;;;5.54;84.24;99971.75;5000030;28;103213;-69
2021/12/19 11:14:19;;;;;;;4.30;3.90;;;;;;;5.59;83.38;99969.84;5006065;28;102638;-69
2021/12/19 11:16:48;;;;;;;3.53;3.22;;;;;;;5.65;82.57;99969.66;4998057;28;102672;-69
2021/12/19 11:19:19;;;;;;;3.70;3.40;;;;;;;5.52;82.28;99968.34;5008583;28;103415;-69
2021/12/19 11:22:08;;;;;;;3.23;3.03;;;;;;;5.43;83.28;99966.00;4998142;28;103222;-69
2021/12/19 11:24:36;;;;;;;4.15;3.78;;;;;;;5.40;82.07;99959.09;5002447;27;102845;-69
2021/12/19 11:27:07;;;;;;;3.90;3.60;;;;;;;5.44;83.13;99959.88;5003434;28;102799;-69
2021/12/19 11:29:36;;;;;;;3.40;3.10;;;;;;;5.30;83.99;99952.44;5002268;27;103364;-69
2021/12/19 11:32:08;;;;;;;3.45;3.15;;;;;;;5.24;84.21;99948.25;4995939;28;103232;-69
2021/12/19 11:35:03;;;;;;;4.30;3.90;;;;;;;5.31;83.25;99946.28;4997217;28;103068;-69
2021/12/19 11:37:35;;;;;;;4.30;3.90;;;;;;;5.39;83.52;99940.81;4994565;28;103033;-69
2021/12/19 11:40:05;;;;;;;4.40;4.00;;;;;;;5.61;82.68;99936.59;5004432;27;103285;-69
2021/12/19 11:42:35;;;;;;;6.03;5.53;;;;;;;5.71;80.93;99935.38;4997113;28;103182;-69
2021/12/19 11:45:28;;;;;;;4.90;4.50;;;;;;;5.43;81.87;99926.69;4994781;28;102488;-69
2021/12/19 11:48:02;;;;;;;5.97;5.38;;;;;;;5.41;82.41;99921.50;4995596;28;102685;-68
2021/12/19 11:50:34;;;;;;;4.35;3.95;;;;;;;5.43;82.70;99916.19;4999126;28;103230;-69
2021/12/19 11:53:21;;;;;;;3.33;3.05;;;;;;;5.44;83.03;99917.94;4997647;28;102996;-69
2021/12/19 11:55:52;;;;;;;2.72;2.53;;;;;;;5.71;82.57;99911.75;4999262;27;102617;-69
2021/12/19 11:58:32;;;;;;;3.40;3.10;;;;;;;5.57;82.23;99903.50;5004557;28;102970;-69
2021/12/19 12:01:04;;;;;;;3.45;3.22;;;;;;;5.41;82.66;99897.06;4997181;28;103229;-69
2021/12/19 12:03:39;;;;;;;4.23;3.90;;;;;;;5.51;82.26;99894.06;5007429;28;103224;-69
2021/12/19 12:06:37;;;;;;;4.70;4.30;;;;;;;5.25;84.18;99887.06;4999309;28;103108;-69
2021/12/19 12:09:20;;;;;;;4.10;3.80;;;;;;;5.44;83.63;99884.72;4995384;28;102633;-69
2021/12/19 12:12:33;;;;;;;5.22;4.75;;;;;;;5.28;83.46;99880.03;4994933;27;104380;-69
2021/12/19 12:15:07;;;;;;;4.33;4.03;;;;;;;5.48;83.40;99881.06;4977240;28;103176;-69
2021/12/19 12:17:44;;;;;;;5.30;4.80;;;;;;;4.75;84.55;99874.69;4974691;28;102735;-69
2021/12/19 12:20:19;;;;;;;5.13;4.72;;;;;;;4.82;84.90;99865.75;4990379;28;104076;-69
2021/12/19 12:23:08;;;;;;;5.30;4.90;;;;;;;5.01;83.66;99853.78;5001047;28;103173;-69
2021/12/19 12:25:43;;;;;;;4.97;4.57;;;;;;;5.08;82.86;99851.84;4998323;28;103159;-68